createdAt,value
2023-02-11T00:01:45.781Z,57.53
2023-02-11T00:04:17.035Z,57.97
2023-02-11T00:06:47.485Z,57.74
2023-02-11T00:09:20.054Z,57.19
2023-02-11T00:11:50.876Z,57.43
2023-02-11T00:14:21.897Z,56.88
2023-02-11T00:16:52.542Z,57.20
2023-02-11T00:19:23.405Z,57.11
2023-02-11T00:21:54.002Z,57.30
2023-02-11T00:24:24.885Z,56.67
2023-02-11T00:26:55.188Z,56.39
2023-02-11T00:29:26.638Z,56.37
2023-02-11T00:31:59.881Z,56.53
2023-02-11T00:34:30.364Z,55.93
2023-02-11T00:37:09.905Z,55.93
2023-02-11T00:39:40.512Z,56.17
2023-02-11T00:42:16.494Z,55.87
2023-02-11T00:44:48.394Z,54.99
2023-02-11T00:47:20.327Z,54.72
2023-02-11T00:49:50.692Z,54.46
2023-02-11T00:52:22.580Z,54.01
2023-02-11T00:54:53.395Z,53.80
2023-02-11T00:57:27.520Z,53.78
2023-02-11T01:00:00.751Z,53.74
2023-02-11T01:02:33.989Z,53.94
2023-02-11T01:05:06.640Z,53.65
2023-02-11T01:07:37.343Z,53.30
2023-02-11T01:10:08.222Z,52.49
2023-02-11T01:12:39.126Z,52.29
2023-02-11T01:15:11.298Z,52.49
2023-02-11T01:17:44.412Z,52.22
2023-02-11T01:20:18.813Z,52.01
2023-02-11T01:22:49.281Z,51.79
2023-02-11T01:25:20.125Z,51.83
2023-02-11T01:27:52.863Z,51.90
2023-02-11T01:30:23.416Z,51.64
2023-02-11T01:32:54.517Z,51.67
2023-02-11T01:35:25.807Z,51.50
2023-02-11T01:37:56.724Z,51.36
2023-02-11T01:40:28.247Z,50.53
2023-02-11T01:42:59.566Z,50.53
2023-02-11T01:45:51.334Z,49.53
2023-02-11T01:48:33.437Z,49.76
2023-02-11T01:51:29.259Z,49.47
2023-02-11T01:54:20.131Z,48.93
2023-02-11T01:57:12.310Z,49.30
2023-02-11T02:00:06.810Z,48.18
2023-02-11T02:02:58.729Z,48.58
2023-02-11T02:05:32.345Z,47.86
2023-02-11T02:08:18.846Z,47.72
2023-02-11T02:10:55.638Z,47.68
2023-02-11T02:13:31.054Z,47.04
2023-02-11T02:16:09.675Z,47.25
2023-02-11T02:18:55.734Z,46.80
2023-02-11T02:22:17.082Z,46.63
2023-02-11T02:24:57.636Z,46.47
2023-02-11T02:27:31.176Z,46.75
2023-02-11T02:30:26.153Z,48.15
2023-02-11T02:33:23.603Z,46.28
2023-02-11T02:36:11.243Z,46.88
2023-02-11T02:38:53.019Z,46.56
2023-02-11T02:41:32.241Z,46.55
2023-02-11T02:44:03.775Z,46.24
2023-02-11T02:46:43.451Z,46.92
2023-02-11T02:49:15.470Z,47.28
2023-02-11T02:52:07.700Z,47.36
2023-02-11T02:54:46.311Z,47.58
2023-02-11T02:57:27.385Z,48.30
2023-02-11T03:00:18.535Z,49.36
2023-02-11T03:03:09.789Z,49.14
2023-02-11T03:05:51.704Z,49.55
2023-02-11T03:08:46.014Z,49.92
2023-02-11T03:11:20.284Z,49.78
2023-02-11T03:13:52.168Z,49.86
2023-02-11T03:16:27.807Z,49.82
2023-02-11T03:19:02.274Z,50.02
2023-02-11T03:21:35.407Z,49.46
2023-02-11T03:24:10.404Z,48.90
2023-02-11T03:27:01.242Z,48.40
2023-02-11T03:29:38.275Z,48.90
2023-02-11T03:32:29.231Z,48.88
2023-02-11T03:35:05.632Z,48.83
2023-02-11T03:38:02.108Z,48.64
2023-02-11T03:40:41.914Z,48.43
2023-02-11T03:43:20.336Z,47.86
2023-02-11T03:45:53.014Z,47.64
2023-02-11T03:48:40.605Z,48.14
2023-02-11T03:51:15.407Z,47.84
2023-02-11T03:53:48.509Z,47.92
2023-02-11T03:56:23.749Z,47.93
2023-02-11T03:58:55.550Z,47.78
2023-02-11T04:01:26.534Z,48.12
2023-02-11T04:03:57.768Z,47.70
2023-02-11T04:06:39.151Z,47.97
2023-02-11T04:09:09.791Z,47.70
2023-02-11T04:11:42.847Z,47.50
2023-02-11T04:14:14.643Z,47.17
2023-02-11T04:16:45.839Z,47.26
2023-02-11T04:19:16.589Z,47.12
2023-02-11T04:21:53.479Z,47.61
2023-02-11T04:24:24.630Z,47.75
2023-02-11T04:26:56.397Z,47.90
2023-02-11T04:29:27.908Z,47.40
2023-02-11T04:31:58.524Z,47.63
2023-02-11T04:34:29.769Z,47.39
2023-02-11T04:37:00.938Z,47.35
2023-02-11T04:39:31.727Z,47.13
2023-02-11T04:42:02.993Z,47.27
2023-02-11T04:44:34.281Z,46.91
2023-02-11T04:47:04.560Z,46.65
2023-02-11T04:49:35.104Z,46.68
2023-02-11T04:52:05.583Z,46.62
2023-02-11T04:54:36.859Z,46.54
2023-02-11T04:57:08.371Z,46.69
2023-02-11T04:59:39.331Z,47.66
2023-02-11T05:02:12.617Z,47.89
2023-02-11T05:04:43.628Z,47.36
2023-02-11T05:07:23.196Z,47.42
2023-02-11T05:09:54.109Z,47.49
2023-02-11T05:12:25.060Z,47.42
2023-02-11T05:14:56.416Z,47.75
2023-02-11T05:17:27.923Z,48.08
2023-02-11T05:19:59.222Z,48.57
2023-02-11T05:22:30.151Z,48.64
2023-02-11T05:25:01.173Z,48.52
2023-02-11T05:27:31.853Z,48.55
2023-02-11T05:30:02.897Z,48.71
2023-02-11T05:32:34.041Z,49.08
2023-02-11T05:35:05.146Z,49.44
2023-02-11T05:37:36.717Z,49.70
2023-02-11T05:40:07.898Z,49.74
2023-02-11T05:42:38.821Z,49.83
2023-02-11T05:45:11.505Z,50.05
2023-02-11T05:47:42.317Z,50.17
2023-02-11T05:50:13.560Z,50.67
2023-02-11T05:52:44.953Z,50.67
2023-02-11T05:55:15.706Z,51.13
2023-02-11T05:57:46.617Z,51.21
2023-02-11T06:00:17.809Z,51.60
2023-02-11T06:02:48.936Z,51.62
2023-02-11T06:05:21.070Z,51.79
2023-02-11T06:07:51.796Z,51.81
2023-02-11T06:10:22.305Z,52.14
2023-02-11T06:12:52.873Z,52.32
2023-02-11T06:15:23.946Z,52.14
2023-02-11T06:17:54.803Z,51.89
2023-02-11T06:20:25.767Z,51.95
2023-02-11T06:22:59.327Z,52.33
2023-02-11T06:25:30.309Z,52.38
2023-02-11T06:28:00.992Z,53.00
2023-02-11T06:30:32.288Z,52.52
2023-02-11T06:33:03.841Z,52.30
2023-02-11T06:35:36.351Z,52.47
2023-02-11T06:38:07.437Z,52.41
2023-02-11T06:40:38.056Z,52.21
2023-02-11T06:43:17.850Z,52.34
2023-02-11T06:45:55.434Z,51.33
2023-02-11T06:48:28.980Z,50.04
2023-02-11T06:51:04.740Z,49.53
2023-02-11T06:53:40.334Z,49.05
2023-02-11T06:56:17.072Z,48.75
2023-02-11T06:58:48.201Z,47.95
2023-02-11T07:01:18.826Z,47.90
2023-02-11T07:03:49.600Z,47.36
2023-02-11T07:06:25.766Z,46.81
2023-02-11T07:08:57.292Z,47.23
2023-02-11T07:11:32.034Z,46.62
2023-02-11T07:14:09.730Z,46.89
2023-02-11T07:16:40.665Z,46.47
2023-02-11T07:19:11.111Z,46.28
2023-02-11T07:21:41.427Z,46.21
2023-02-11T07:24:13.152Z,45.53
2023-02-11T07:26:45.671Z,45.53
2023-02-11T07:29:16.629Z,45.33
2023-02-11T07:31:47.414Z,44.78
2023-02-11T07:34:18.039Z,44.74
2023-02-11T07:36:50.136Z,44.90
2023-02-11T07:39:22.839Z,45.50
2023-02-11T07:41:53.584Z,45.08
2023-02-11T07:44:24.152Z,45.19
2023-02-11T07:46:57.420Z,44.75
2023-02-11T07:49:36.339Z,45.10
2023-02-11T07:52:09.611Z,45.01
2023-02-11T07:54:40.076Z,44.76
2023-02-11T07:57:10.738Z,45.12
2023-02-11T07:59:41.453Z,44.83
2023-02-11T08:02:12.262Z,45.13
2023-02-11T08:04:42.569Z,45.08
2023-02-11T08:07:17.102Z,44.92
2023-02-11T08:09:48.509Z,44.78
2023-02-11T08:12:19.520Z,44.60
2023-02-11T08:14:50.340Z,44.68
2023-02-11T08:17:20.704Z,44.85
2023-02-11T08:19:51.503Z,44.97
2023-02-11T08:22:21.875Z,44.78
2023-02-11T08:24:53.106Z,45.08
2023-02-11T08:27:23.811Z,45.11
2023-02-11T08:29:56.051Z,44.83
2023-02-11T08:32:26.840Z,45.28
2023-02-11T08:34:57.920Z,44.97
2023-02-11T08:37:34.146Z,44.97
2023-02-11T08:40:04.710Z,45.04
2023-02-11T08:42:35.389Z,44.89
2023-02-11T08:45:06.873Z,44.91
2023-02-11T08:47:38.270Z,44.93
2023-02-11T08:50:11.368Z,44.99
2023-02-11T08:52:41.724Z,44.99
2023-02-11T08:55:13.122Z,45.20
2023-02-11T08:57:43.601Z,45.35
2023-02-11T09:00:25.073Z,45.60
2023-02-11T09:02:56.408Z,45.25
2023-02-11T09:05:28.640Z,45.09
2023-02-11T09:08:01.937Z,45.11
2023-02-11T09:10:32.490Z,45.65
2023-02-11T09:13:03.405Z,45.25
2023-02-11T09:15:34.431Z,45.28
2023-02-11T09:18:06.458Z,45.56
2023-02-11T09:20:36.999Z,45.57
2023-02-11T09:23:07.961Z,45.37
2023-02-11T09:25:42.101Z,45.68
2023-02-11T09:28:13.417Z,45.87
2023-02-11T09:30:44.482Z,45.57
2023-02-11T09:33:18.261Z,46.43
2023-02-11T09:35:48.677Z,45.50
2023-02-11T09:38:20.323Z,44.99
2023-02-11T09:40:50.848Z,45.53
2023-02-11T09:43:34.817Z,45.35
2023-02-11T09:46:15.124Z,44.98
2023-02-11T09:48:48.403Z,44.39
2023-02-11T09:52:00.422Z,44.50
2023-02-11T09:54:53.740Z,44.47
2023-02-11T09:57:29.354Z,44.96
2023-02-11T10:00:01.864Z,45.28
2023-02-11T10:02:59.607Z,45.02
2023-02-11T10:05:50.320Z,45.33
2023-02-11T10:08:24.275Z,45.36
2023-02-11T10:11:01.812Z,45.47
2023-02-11T10:13:48.530Z,45.40
2023-02-11T10:16:30.683Z,45.14
2023-02-11T10:19:12.244Z,45.64
2023-02-11T10:21:59.955Z,45.76
2023-02-11T10:24:31.656Z,45.68
2023-02-11T10:27:04.159Z,46.13
2023-02-11T10:29:42.036Z,46.25
2023-02-11T10:32:27.191Z,46.22
2023-02-11T10:35:05.596Z,46.08
2023-02-11T10:37:36.251Z,46.01
2023-02-11T10:40:14.448Z,46.63
2023-02-11T10:43:00.179Z,46.71
2023-02-11T10:45:51.729Z,46.68
2023-02-11T10:48:42.260Z,46.82
2023-02-11T10:51:25.932Z,46.97
2023-02-11T10:54:14.262Z,47.27
2023-02-11T10:56:54.352Z,47.54
2023-02-11T10:59:27.808Z,47.17
2023-02-11T11:02:04.030Z,47.40
2023-02-11T11:04:42.742Z,47.36
2023-02-11T11:07:29.214Z,47.86
2023-02-11T11:10:07.413Z,47.27
2023-02-11T11:12:47.257Z,47.65
2023-02-11T11:15:26.583Z,47.47
2023-02-11T11:18:22.312Z,47.89
2023-02-11T11:21:02.943Z,47.82
2023-02-11T11:23:34.610Z,47.74
2023-02-11T11:26:11.715Z,48.58
2023-02-11T11:28:58.859Z,48.14
2023-02-11T11:31:32.756Z,48.24
2023-02-11T11:34:31.331Z,48.46
2023-02-11T11:37:12.202Z,48.87
2023-02-11T11:39:43.167Z,48.67
2023-02-11T11:42:35.129Z,49.08
2023-02-11T11:45:26.931Z,49.02
2023-02-11T11:48:14.646Z,49.12
2023-02-11T11:50:57.980Z,49.50
2023-02-11T11:53:47.627Z,49.62
2023-02-11T11:56:28.419Z,50.05
2023-02-11T11:59:02.746Z,49.62
2023-02-11T12:01:40.442Z,49.97
2023-02-11T12:04:28.098Z,49.70
2023-02-11T12:07:19.672Z,49.75
2023-02-11T12:10:15.769Z,49.73
2023-02-11T12:13:04.280Z,49.52
2023-02-11T12:16:17.187Z,49.52
2023-02-11T12:18:55.373Z,49.73
2023-02-11T12:21:38.248Z,49.36
2023-02-11T12:24:30.547Z,49.23
2023-02-11T12:27:04.556Z,49.54
2023-02-11T12:29:42.167Z,49.76
2023-02-11T12:32:18.873Z,49.63
2023-02-11T12:34:49.998Z,49.26
2023-02-11T12:37:39.319Z,49.24
2023-02-11T12:40:29.623Z,49.56
2023-02-11T12:43:24.531Z,49.72
2023-02-11T12:46:24.910Z,49.83
2023-02-11T12:49:11.578Z,49.88
2023-02-11T12:51:56.962Z,49.84
2023-02-11T12:54:47.317Z,49.86
2023-02-11T12:57:31.100Z,50.55
2023-02-11T13:00:09.521Z,50.13
2023-02-11T13:03:01.769Z,50.47
2023-02-11T13:05:47.857Z,50.48
2023-02-11T13:08:33.030Z,50.49
2023-02-11T13:11:08.885Z,50.68
2023-02-11T13:13:47.313Z,50.54
2023-02-11T13:16:38.790Z,50.88
2023-02-11T13:19:15.278Z,50.62
2023-02-11T13:22:10.637Z,50.85
2023-02-11T13:25:04.553Z,50.92
2023-02-11T13:27:37.789Z,50.89
2023-02-11T13:30:28.743Z,50.82
2023-02-11T13:33:01.984Z,51.23
2023-02-11T13:35:37.751Z,51.04
2023-02-11T13:38:29.150Z,50.91
2023-02-11T13:41:54.876Z,51.23
2023-02-11T13:44:28.206Z,52.18
2023-02-11T13:47:08.583Z,52.08
2023-02-11T13:49:44.389Z,52.21
2023-02-11T13:52:46.005Z,52.16
2023-02-11T13:55:27.947Z,52.34
2023-02-11T13:58:10.117Z,52.66
2023-02-11T14:00:41.297Z,52.41
2023-02-11T14:03:30.605Z,52.28
2023-02-11T14:06:27.783Z,52.66
2023-02-11T14:09:10.894Z,52.48
2023-02-11T14:11:54.750Z,53.08
2023-02-11T14:14:37.157Z,52.76
2023-02-11T14:17:11.545Z,52.92
2023-02-11T14:19:47.335Z,52.95
2023-02-11T14:22:20.052Z,52.58
2023-02-11T14:24:52.112Z,52.68
2023-02-11T14:27:30.341Z,53.10
2023-02-11T14:30:16.018Z,52.95
2023-02-11T14:33:02.193Z,53.93
2023-02-11T14:36:09.815Z,53.58
2023-02-11T14:39:06.418Z,53.59
2023-02-11T14:41:47.468Z,53.87
2023-02-11T14:44:29.930Z,54.00
2023-02-11T14:47:01.240Z,53.83
2023-02-11T14:49:38.323Z,53.99
2023-02-11T14:52:23.717Z,53.92
2023-02-11T14:55:04.196Z,53.73
2023-02-11T14:57:35.143Z,53.57
2023-02-11T15:00:18.728Z,53.84
2023-02-11T15:02:49.728Z,53.74
2023-02-11T15:05:23.442Z,53.90
2023-02-11T15:07:58.110Z,53.89
2023-02-11T15:10:36.596Z,54.63
2023-02-11T15:13:07.535Z,54.24
2023-02-11T15:15:41.890Z,54.16
2023-02-11T15:18:23.931Z,54.21
2023-02-11T15:20:54.628Z,54.17
2023-02-11T15:23:27.843Z,54.62
2023-02-11T15:25:58.874Z,54.22
2023-02-11T15:28:32.022Z,54.34
2023-02-11T15:31:06.243Z,54.29
2023-02-11T15:33:36.843Z,54.40
2023-02-11T15:36:07.857Z,54.44
2023-02-11T15:38:39.401Z,54.31
2023-02-11T15:41:35.082Z,54.34
2023-02-11T15:44:08.972Z,54.65
2023-02-11T15:46:40.867Z,54.47
2023-02-11T15:49:20.101Z,54.40
2023-02-11T15:51:53.478Z,54.22
2023-02-11T15:54:27.651Z,54.39
2023-02-11T15:57:05.204Z,54.44
2023-02-11T15:59:39.292Z,55.00
2023-02-11T16:02:38.360Z,54.88
2023-02-11T16:05:10.835Z,55.01
2023-02-11T16:07:48.910Z,54.93
2023-02-11T16:10:35.418Z,55.01
2023-02-11T16:13:08.838Z,55.02
2023-02-11T16:15:47.756Z,55.13
2023-02-11T16:18:38.773Z,55.02
2023-02-11T16:21:18.206Z,55.58
2023-02-11T16:23:57.192Z,55.31
2023-02-11T16:26:52.176Z,55.24
2023-02-11T16:29:30.974Z,55.15
2023-02-11T16:32:27.156Z,55.02
2023-02-11T16:35:00.361Z,55.32
2023-02-11T16:37:33.409Z,55.14
2023-02-11T16:40:04.356Z,55.27
2023-02-11T16:42:35.035Z,55.47
2023-02-11T16:45:06.584Z,55.68
2023-02-11T16:47:41.832Z,55.47
2023-02-11T16:50:17.035Z,55.70
2023-02-11T16:52:48.150Z,55.93
2023-02-11T16:55:22.025Z,55.65
2023-02-11T16:57:53.627Z,56.22
2023-02-11T17:00:24.595Z,55.84
2023-02-11T17:02:55.333Z,56.40
2023-02-11T17:05:26.857Z,55.93
2023-02-11T17:07:57.677Z,56.38
2023-02-11T17:10:28.081Z,56.08
2023-02-11T17:12:59.240Z,56.54
2023-02-11T17:15:29.645Z,56.42
2023-02-11T17:18:00.830Z,56.83
2023-02-11T17:20:31.565Z,56.49
2023-02-11T17:23:02.215Z,56.77
2023-02-11T17:25:32.569Z,56.61
2023-02-11T17:28:02.902Z,57.00
2023-02-11T17:30:36.424Z,56.54
2023-02-11T17:33:07.016Z,56.67
2023-02-11T17:35:41.479Z,57.08
2023-02-11T17:38:11.822Z,56.78
2023-02-11T17:40:42.485Z,57.21
2023-02-11T17:43:13.715Z,56.98
2023-02-11T17:45:44.660Z,57.27
2023-02-11T17:48:15.306Z,57.16
2023-02-11T17:50:45.734Z,57.22
2023-02-11T17:53:16.308Z,56.81
2023-02-11T17:55:47.064Z,56.74
2023-02-11T17:58:17.735Z,56.76
2023-02-11T18:00:54.072Z,56.61
2023-02-11T18:03:24.664Z,56.72
2023-02-11T18:06:07.778Z,56.84
2023-02-11T18:08:38.154Z,56.74
2023-02-11T18:11:11.829Z,56.65
2023-02-11T18:13:43.941Z,56.80
2023-02-11T18:16:17.352Z,57.04
2023-02-11T18:18:47.684Z,57.33
2023-02-11T18:21:22.612Z,56.67
2023-02-11T18:23:53.765Z,57.21
2023-02-11T18:26:27.252Z,57.61
2023-02-11T18:29:02.726Z,57.60
2023-02-11T18:31:33.291Z,57.90
2023-02-11T18:34:08.359Z,57.95
2023-02-11T18:36:39.864Z,58.10
2023-02-11T18:39:11.044Z,57.88
2023-02-11T18:41:43.225Z,57.27
2023-02-11T18:44:15.209Z,57.74
2023-02-11T18:46:45.979Z,57.84
2023-02-11T18:49:16.638Z,57.66
2023-02-11T18:51:47.434Z,57.71
2023-02-11T18:54:17.828Z,57.67
2023-02-11T18:56:48.176Z,57.59
2023-02-11T18:59:18.488Z,57.79
2023-02-11T19:01:48.983Z,57.71
2023-02-11T19:04:20.837Z,57.78
2023-02-11T19:06:51.932Z,57.79
2023-02-11T19:09:22.731Z,57.98
2023-02-11T19:11:54.933Z,57.96
2023-02-11T19:14:34.332Z,58.09
2023-02-11T19:17:09.936Z,58.42
2023-02-11T19:19:43.995Z,57.99
2023-02-11T19:22:14.779Z,58.52
2023-02-11T19:24:46.563Z,58.63
2023-02-11T19:27:17.596Z,58.52
2023-02-11T19:29:48.169Z,58.54
2023-02-11T19:32:21.879Z,58.16
2023-02-11T19:35:03.090Z,58.50
2023-02-11T19:37:33.983Z,58.73
2023-02-11T19:40:05.001Z,58.50
2023-02-11T19:42:35.815Z,58.58
2023-02-11T19:45:08.329Z,58.61
2023-02-11T19:47:38.910Z,58.25
2023-02-11T19:50:10.204Z,58.24
2023-02-11T19:52:41.762Z,58.79
2023-02-11T19:55:12.458Z,58.36
2023-02-11T19:57:43.570Z,58.47
2023-02-11T20:00:17.571Z,58.40
2023-02-11T20:02:48.224Z,58.63
2023-02-11T20:05:19.154Z,58.40
2023-02-11T20:07:49.467Z,58.16
2023-02-11T20:10:20.222Z,58.62
2023-02-11T20:12:51.175Z,58.80
2023-02-11T20:15:21.539Z,58.29
2023-02-11T20:17:51.908Z,58.71
2023-02-11T20:20:22.547Z,58.53
2023-02-11T20:22:53.356Z,58.62
2023-02-11T20:25:23.988Z,58.15
2023-02-11T20:27:54.556Z,58.26
2023-02-11T20:30:25.533Z,58.69
2023-02-11T20:32:58.059Z,58.25
2023-02-11T20:35:37.392Z,58.80
2023-02-11T20:38:10.493Z,58.74
2023-02-11T20:40:41.150Z,58.81
2023-02-11T20:43:14.674Z,58.80
2023-02-11T20:45:50.713Z,58.74
2023-02-11T20:48:21.363Z,58.99
2023-02-11T20:50:52.102Z,58.77
2023-02-11T20:53:22.500Z,58.51
2023-02-11T20:55:53.369Z,58.82
2023-02-11T20:58:23.950Z,58.69
2023-02-11T21:00:54.749Z,59.06
2023-02-11T21:03:25.558Z,58.90
2023-02-11T21:06:00.087Z,58.77
2023-02-11T21:08:30.780Z,58.74
2023-02-11T21:11:01.340Z,58.87
2023-02-11T21:13:31.732Z,59.10
2023-02-11T21:16:03.353Z,59.20
2023-02-11T21:18:34.137Z,58.92
2023-02-11T21:21:07.010Z,59.15
2023-02-11T21:23:39.072Z,58.86
2023-02-11T21:26:10.050Z,58.93
2023-02-11T21:28:41.338Z,58.67
2023-02-11T21:31:21.778Z,59.36
2023-02-11T21:33:53.985Z,59.19
2023-02-11T21:36:25.244Z,59.51
2023-02-11T21:38:55.796Z,59.35
2023-02-11T21:41:27.819Z,59.45
2023-02-11T21:43:58.641Z,59.74
2023-02-11T21:46:29.325Z,60.03
2023-02-11T21:49:01.269Z,60.49
2023-02-11T21:51:32.148Z,60.33
2023-02-11T21:54:03.947Z,60.69
2023-02-11T21:56:36.455Z,60.39
2023-02-11T21:59:07.118Z,60.66
2023-02-11T22:01:38.023Z,60.53
2023-02-11T22:04:08.689Z,60.69
2023-02-11T22:06:39.812Z,61.17
2023-02-11T22:09:12.162Z,61.15
2023-02-11T22:11:43.203Z,61.12
2023-02-11T22:14:13.548Z,61.16
2023-02-11T22:16:47.025Z,61.13
2023-02-11T22:19:17.486Z,61.62
2023-02-11T22:21:48.346Z,61.52
2023-02-11T22:24:18.740Z,61.75
2023-02-11T22:26:51.861Z,61.33
2023-02-11T22:29:31.384Z,61.22
2023-02-11T22:32:02.232Z,61.38
2023-02-11T22:34:33.489Z,61.64
2023-02-11T22:37:06.195Z,61.80
2023-02-11T22:39:36.598Z,61.60
2023-02-11T22:42:10.339Z,61.38
2023-02-11T22:44:40.587Z,61.79
2023-02-11T22:47:11.581Z,61.47
2023-02-11T22:49:42.667Z,61.58
2023-02-11T22:52:13.297Z,61.33
2023-02-11T22:54:44.090Z,61.60
2023-02-11T22:57:15.018Z,61.58
2023-02-11T22:59:45.655Z,61.05
2023-02-11T23:02:17.583Z,61.37
2023-02-11T23:04:49.924Z,61.76
2023-02-11T23:07:20.542Z,61.65
2023-02-11T23:09:51.177Z,61.55
2023-02-11T23:12:21.543Z,61.43
2023-02-11T23:14:52.877Z,61.68
2023-02-11T23:17:25.388Z,61.59
2023-02-11T23:19:55.945Z,61.84
2023-02-11T23:22:27.020Z,61.58
2023-02-11T23:24:57.687Z,61.80
2023-02-11T23:27:28.402Z,61.51
2023-02-11T23:29:59.701Z,61.50
2023-02-11T23:32:30.937Z,61.47
2023-02-11T23:35:01.965Z,61.47
2023-02-11T23:37:32.258Z,61.48
2023-02-11T23:40:03.265Z,61.72
2023-02-11T23:42:36.256Z,61.32
2023-02-11T23:45:07.744Z,61.61
2023-02-11T23:47:40.272Z,61.14
2023-02-11T23:50:12.055Z,61.66
2023-02-11T23:52:42.953Z,61.06
2023-02-11T23:55:16.589Z,61.04
2023-02-11T23:57:47.225Z,61.48
